Old Saybrook, CT

4:09 AM EST on February 07, 2016 (GMT -0500)
Beamon Creek | | Change Station
CLOSE
Current Station
Personal Weather Station
Location: Old Saybrook, CT
Elevation: 10 ft
Nearby Weather Stations

Elev 10 ft 41.27 °N, 72.37 °W | Updated 29 seconds ago

Clear
Clear
26.8 °F
Feels Like 27 °F
N
0.0
Wind Variable Wind from North

Today
High -- | Low -- °F
--% Chance of Precip.
Yesterday
High -- | Low -- °F
Precip. -- in
Pressure 30.19 in
Visibility 10.0 miles
Clouds Clear
Windchill 27 °F
Dew Point 26 °F
Humidity 99%
Rainfall 0.02 in
Snow Depth Not available.
6:54 AM 5:12 PM
Waning Crescent, 2% visible
METAR KSNC 070855Z AUTO 25005KT 10SM CLR 00/M04 A3019 RMK AO2
Pressure 30.19 in
Visibility 10.0 miles
Clouds Clear
Windchill 27 °F
Dew Point 26 °F
Humidity 99%
Rainfall 0.02 in
Snow Depth Not available.
6:54 AM 5:12 PM
Waning Crescent, 2% visible
METAR KSNC 070855Z AUTO 25005KT 10SM CLR 00/M04 A3019 RMK AO2

10-Day Weather Forecast

Almanac

Astronomy

Feb. 07, 2016 Rise Set
Actual Time
Civil Twilight
Nautical Twilight
Astronomical Twilight
Moon
Length of Visible Light
Length of Day
Tomorrow will be .
, % of the Moon is Illuminated

Today's Extremes

State Highs State Lows

Community

WunderPhotos

Upload Photos

1,891,171 photos uploaded!

WunderBlog® & News

Nearby

Air Quality

  Air Quality AQ Index Pollutant
Not available.

Snow Depth

Station Depth Elevation

Earthquake Activity

City Distance Mag. Time & Date
Minimum magnitude displayed is 2.5.

Coastal Water Temperatures

Place Temperature

Stations

Nearby Weather Stations

Station Location Temp. Windchill Dew Point Humidity Wind Precip. Elev Updated Type
                   

Watches & Warnings

There are currently no watches in effect.